createdAt,value
2019-03-06T00:00:15.228Z,70.60
2019-03-06T00:01:25.949Z,70.80
2019-03-06T00:02:33.090Z,70.80
2019-03-06T00:03:40.308Z,70.80
2019-03-06T00:04:47.469Z,70.70
2019-03-06T00:05:54.618Z,70.80
2019-03-06T00:07:01.770Z,70.90
2019-03-06T00:08:09.872Z,70.90
2019-03-06T00:09:17.060Z,70.90
2019-03-06T00:10:27.849Z,71.00
2019-03-06T00:11:34.988Z,71.10
2019-03-06T00:12:42.591Z,71.00
2019-03-06T00:13:49.910Z,71.10
2019-03-06T00:14:57.043Z,71.90
2019-03-06T00:16:04.407Z,71.20
2019-03-06T00:17:12.737Z,71.20
2019-03-06T00:18:20.628Z,71.40
2019-03-06T00:19:27.798Z,71.30
2019-03-06T00:20:34.881Z,71.50
2019-03-06T00:21:42.085Z,71.60
2019-03-06T00:22:49.695Z,71.60
2019-03-06T00:23:56.846Z,71.60
2019-03-06T00:25:04.458Z,71.60
2019-03-06T00:26:11.686Z,71.70
2019-03-06T00:27:18.827Z,71.70
2019-03-06T00:28:25.923Z,71.80
2019-03-06T00:29:33.079Z,71.70
2019-03-06T00:30:40.421Z,71.80
2019-03-06T00:31:48.163Z,71.70
2019-03-06T00:32:55.313Z,71.80
2019-03-06T00:34:02.475Z,71.80
2019-03-06T00:35:15.203Z,71.80
2019-03-06T00:36:24.135Z,71.80
2019-03-06T00:37:31.613Z,71.80
2019-03-06T00:38:38.775Z,71.80
2019-03-06T00:39:54.129Z,71.90
2019-03-06T00:41:21.276Z,71.80
2019-03-06T00:42:28.497Z,71.80
2019-03-06T00:43:35.619Z,71.80
2019-03-06T00:44:42.878Z,71.80
2019-03-06T00:45:50.265Z,71.80
2019-03-06T00:46:57.418Z,71.80
2019-03-06T00:48:04.700Z,71.80
2019-03-06T00:49:11.845Z,71.80
2019-03-06T00:50:19.007Z,71.80
2019-03-06T00:51:26.162Z,71.80
2019-03-06T00:52:33.313Z,71.90
2019-03-06T00:53:40.935Z,71.80
2019-03-06T00:54:48.080Z,71.80
2019-03-06T00:55:55.246Z,71.90
2019-03-06T00:57:02.403Z,71.90
2019-03-06T00:58:11.250Z,72.50
2019-03-06T00:59:18.393Z,71.90
2019-03-06T01:00:26.038Z,71.80
2019-03-06T01:01:33.249Z,71.60
2019-03-06T01:02:40.415Z,71.70
2019-03-06T01:03:47.996Z,71.50
2019-03-06T01:04:55.146Z,71.60
2019-03-06T01:06:02.303Z,71.60
2019-03-06T01:07:10.530Z,71.50
2019-03-06T01:08:17.719Z,71.50
2019-03-06T01:09:24.864Z,71.50
2019-03-06T01:10:32.020Z,71.40
2019-03-06T01:11:40.981Z,71.40
2019-03-06T01:12:48.149Z,71.60
2019-03-06T01:13:55.301Z,71.30
2019-03-06T01:15:02.443Z,71.30
2019-03-06T01:16:10.669Z,71.40
2019-03-06T01:17:17.811Z,71.20
2019-03-06T01:18:25.490Z,71.20
2019-03-06T01:19:32.640Z,71.30
2019-03-06T01:20:39.812Z,71.20
2019-03-06T01:21:47.024Z,71.20
2019-03-06T01:22:54.172Z,71.20
2019-03-06T01:24:01.321Z,70.90
2019-03-06T01:25:09.222Z,70.80
2019-03-06T01:26:16.389Z,70.90
2019-03-06T01:27:23.587Z,70.60
2019-03-06T01:28:30.698Z,70.60
2019-03-06T01:29:37.846Z,70.60
2019-03-06T01:30:44.999Z,71.10
2019-03-06T01:31:52.567Z,70.50
2019-03-06T01:33:15.162Z,70.60
2019-03-06T01:34:41.203Z,71.30
2019-03-06T01:35:55.296Z,70.20
2019-03-06T01:37:08.126Z,70.20
2019-03-06T01:38:37.223Z,70.10
2019-03-06T01:40:09.160Z,70.00
2019-03-06T01:41:35.585Z,69.80
2019-03-06T01:42:56.278Z,69.40
2019-03-06T01:44:16.796Z,69.60
2019-03-06T01:45:23.947Z,69.30
2019-03-06T01:46:31.405Z,69.30
2019-03-06T01:47:38.574Z,69.30
2019-03-06T01:48:45.732Z,69.00
2019-03-06T01:49:52.902Z,68.50
2019-03-06T01:51:01.043Z,68.40
2019-03-06T01:52:08.186Z,68.50
2019-03-06T01:53:16.161Z,68.40
2019-03-06T01:54:23.329Z,68.40
2019-03-06T01:55:31.455Z,68.40
2019-03-06T01:56:38.602Z,68.70
2019-03-06T01:57:47.298Z,68.80
2019-03-06T01:58:54.458Z,68.90
2019-03-06T02:00:01.609Z,69.00
2019-03-06T02:01:09.777Z,69.20
2019-03-06T02:02:16.937Z,69.30
2019-03-06T02:03:24.110Z,69.30
2019-03-06T02:04:31.257Z,69.30
2019-03-06T02:05:38.739Z,69.30
2019-03-06T02:06:45.961Z,69.20
2019-03-06T02:07:53.111Z,69.30
2019-03-06T02:09:00.870Z,69.20
2019-03-06T02:10:11.200Z,69.30
2019-03-06T02:11:18.429Z,69.20
2019-03-06T02:12:25.590Z,69.40
2019-03-06T02:13:32.743Z,69.50
2019-03-06T02:14:39.915Z,69.40
2019-03-06T02:15:47.074Z,69.60
2019-03-06T02:16:54.222Z,69.70
2019-03-06T02:18:01.383Z,69.80
2019-03-06T02:19:09.360Z,69.90
2019-03-06T02:20:17.869Z,70.10
2019-03-06T02:21:25.016Z,70.20
2019-03-06T02:22:32.098Z,70.00
2019-03-06T02:23:39.325Z,69.80
2019-03-06T02:24:46.560Z,69.90
2019-03-06T02:25:53.707Z,69.90
2019-03-06T02:27:00.847Z,70.00
2019-03-06T02:28:08.337Z,70.00
2019-03-06T02:29:15.537Z,70.20
2019-03-06T02:30:23.272Z,70.30
2019-03-06T02:31:30.419Z,70.30
2019-03-06T02:32:37.577Z,70.20
2019-03-06T02:33:44.746Z,71.30
2019-03-06T02:34:51.886Z,70.50
2019-03-06T02:35:59.701Z,70.70
2019-03-06T02:37:06.866Z,70.70
2019-03-06T02:38:14.008Z,71.10
2019-03-06T02:39:21.270Z,71.10
2019-03-06T02:40:28.811Z,71.40
2019-03-06T02:41:35.958Z,71.90
2019-03-06T02:42:45.134Z,71.70
2019-03-06T02:43:52.277Z,71.80
2019-03-06T02:44:59.447Z,72.20
2019-03-06T02:46:06.865Z,72.00
2019-03-06T02:47:14.020Z,72.00
2019-03-06T02:48:22.262Z,72.10
2019-03-06T02:49:29.440Z,72.20
2019-03-06T02:50:36.601Z,72.20
2019-03-06T02:51:43.746Z,72.40
2019-03-06T02:52:50.902Z,72.20
2019-03-06T02:53:58.062Z,72.20
2019-03-06T02:55:05.435Z,72.50
2019-03-06T02:56:12.575Z,72.50
2019-03-06T02:57:19.723Z,72.50
2019-03-06T02:59:00.879Z,72.60
2019-03-06T03:00:38.319Z,72.70
2019-03-06T03:01:59.458Z,72.60
2019-03-06T03:03:25.525Z,72.40
2019-03-06T03:04:37.230Z,72.30
2019-03-06T03:05:51.896Z,72.60
2019-03-06T03:07:03.055Z,72.40
2019-03-06T03:08:10.362Z,72.40
2019-03-06T03:09:19.900Z,72.30
2019-03-06T03:10:27.063Z,72.40
2019-03-06T03:11:34.199Z,72.40
2019-03-06T03:12:41.927Z,72.30
2019-03-06T03:13:49.126Z,72.30
2019-03-06T03:14:56.270Z,72.20
2019-03-06T03:16:03.430Z,72.50
2019-03-06T03:17:10.588Z,72.30
2019-03-06T03:18:17.739Z,72.60
2019-03-06T03:19:24.893Z,72.40
2019-03-06T03:20:32.047Z,72.30
2019-03-06T03:21:39.211Z,72.30
2019-03-06T03:22:46.345Z,72.50
2019-03-06T03:23:53.565Z,72.60
2019-03-06T03:25:00.694Z,72.40
2019-03-06T03:26:07.837Z,72.20
2019-03-06T03:27:14.991Z,72.10
2019-03-06T03:28:22.194Z,72.00
2019-03-06T03:29:29.261Z,71.80
2019-03-06T03:30:36.399Z,71.70
2019-03-06T03:31:43.855Z,71.70
2019-03-06T03:32:51.018Z,71.70
2019-03-06T03:33:58.188Z,71.60
2019-03-06T03:35:06.073Z,71.50
2019-03-06T03:36:13.339Z,71.50
2019-03-06T03:37:20.496Z,71.40
2019-03-06T03:38:27.671Z,71.40
2019-03-06T03:39:34.833Z,71.30
2019-03-06T03:40:41.990Z,71.20
2019-03-06T03:41:49.150Z,71.00
2019-03-06T03:42:56.499Z,70.80
2019-03-06T03:44:03.655Z,70.40
2019-03-06T03:45:12.069Z,70.20
2019-03-06T03:46:19.216Z,70.30
2019-03-06T03:47:26.369Z,70.40
2019-03-06T03:48:33.679Z,70.60
2019-03-06T03:49:40.854Z,70.50
2019-03-06T03:50:48.064Z,70.80
2019-03-06T03:51:55.221Z,70.80
2019-03-06T03:53:02.383Z,70.70
2019-03-06T03:54:09.563Z,70.80
2019-03-06T03:55:16.742Z,70.90
2019-03-06T03:56:23.906Z,70.80
2019-03-06T03:57:31.263Z,70.90
2019-03-06T03:58:38.374Z,70.70
2019-03-06T03:59:45.507Z,70.80
2019-03-06T04:00:52.683Z,70.90
2019-03-06T04:01:59.844Z,70.80
2019-03-06T04:03:06.998Z,71.00
2019-03-06T04:04:14.162Z,71.00
2019-03-06T04:05:21.321Z,71.00
2019-03-06T04:06:28.477Z,70.90
2019-03-06T04:07:35.622Z,71.00
2019-03-06T04:08:42.787Z,71.00
2019-03-06T04:09:50.293Z,71.00
2019-03-06T04:10:57.441Z,71.00
2019-03-06T04:12:04.592Z,70.80
2019-03-06T04:13:11.736Z,70.80
2019-03-06T04:14:18.908Z,71.00
2019-03-06T04:15:26.072Z,70.80
2019-03-06T04:16:34.185Z,70.70
2019-03-06T04:17:41.331Z,70.70
2019-03-06T04:18:48.504Z,70.60
2019-03-06T04:19:56.320Z,70.50
2019-03-06T04:21:03.787Z,70.50
2019-03-06T04:22:11.075Z,70.30
2019-03-06T04:23:18.246Z,70.50
2019-03-06T04:24:25.400Z,70.60
2019-03-06T04:25:32.543Z,70.60
2019-03-06T04:26:39.687Z,70.70
2019-03-06T04:27:46.859Z,70.90
2019-03-06T04:28:54.028Z,70.80
2019-03-06T04:30:01.181Z,70.70
2019-03-06T04:31:08.390Z,70.80
2019-03-06T04:32:15.533Z,71.30
2019-03-06T04:33:23.272Z,70.70
2019-03-06T04:34:30.503Z,70.90
2019-03-06T04:35:37.638Z,71.10
2019-03-06T04:36:44.780Z,71.40
2019-03-06T04:37:51.909Z,71.30
2019-03-06T04:39:00.068Z,71.10
2019-03-06T04:40:07.830Z,71.30
2019-03-06T04:41:14.956Z,71.30
2019-03-06T04:42:22.115Z,71.20
2019-03-06T04:43:29.427Z,71.30
2019-03-06T04:44:36.750Z,71.30
2019-03-06T04:45:44.197Z,71.30
2019-03-06T04:46:51.526Z,71.20
2019-03-06T04:47:58.940Z,71.10
2019-03-06T04:49:06.716Z,70.80
2019-03-06T04:50:14.362Z,70.80
2019-03-06T04:51:21.803Z,71.00
2019-03-06T04:52:29.137Z,71.70
2019-03-06T04:53:36.552Z,71.10
2019-03-06T04:54:43.974Z,71.10
2019-03-06T04:55:51.513Z,71.20
2019-03-06T04:56:59.899Z,71.20
2019-03-06T04:58:07.460Z,71.00
2019-03-06T04:59:14.769Z,71.30
2019-03-06T05:00:22.250Z,71.20
2019-03-06T05:01:29.777Z,71.20
2019-03-06T05:02:37.271Z,71.40
2019-03-06T05:03:44.905Z,71.40
2019-03-06T05:04:52.249Z,71.40
2019-03-06T05:05:59.707Z,71.50
2019-03-06T05:07:07.239Z,71.50
2019-03-06T05:08:15.394Z,71.30
2019-03-06T05:09:22.534Z,71.30
2019-03-06T05:10:29.729Z,71.30
2019-03-06T05:11:36.861Z,71.20
2019-03-06T05:12:44.818Z,71.00
2019-03-06T05:13:51.954Z,71.00
2019-03-06T05:14:59.036Z,71.20
2019-03-06T05:16:06.196Z,71.30
2019-03-06T05:17:31.996Z,71.30
2019-03-06T05:19:04.318Z,71.40
2019-03-06T05:20:11.506Z,71.40
2019-03-06T05:21:18.662Z,71.40
2019-03-06T05:22:25.880Z,71.50
2019-03-06T05:23:32.961Z,71.50
2019-03-06T05:24:40.111Z,71.30
2019-03-06T05:25:48.205Z,71.40
2019-03-06T05:26:55.389Z,71.60
2019-03-06T05:28:02.535Z,71.70
2019-03-06T05:29:09.696Z,71.70
2019-03-06T05:30:17.854Z,71.70
2019-03-06T05:31:25.400Z,71.70
2019-03-06T05:32:37.775Z,71.50
2019-03-06T05:33:44.844Z,71.40
2019-03-06T05:34:52.985Z,71.40
2019-03-06T05:36:53.823Z,71.10
2019-03-06T05:38:27.860Z,70.90
2019-03-06T05:39:35.028Z,70.90
2019-03-06T05:40:42.168Z,70.90
2019-03-06T05:41:49.313Z,70.80
2019-03-06T05:42:56.445Z,70.80
2019-03-06T05:44:03.582Z,70.80
2019-03-06T05:45:10.852Z,70.60
2019-03-06T05:46:17.986Z,70.30
2019-03-06T05:47:25.177Z,70.60
2019-03-06T05:48:34.246Z,71.20
2019-03-06T05:49:41.404Z,70.80
2019-03-06T05:50:48.557Z,70.70
2019-03-06T05:51:55.630Z,70.70
2019-03-06T05:53:02.815Z,70.70
2019-03-06T05:54:09.973Z,70.70
2019-03-06T05:55:17.944Z,70.70
2019-03-06T05:56:25.114Z,70.60
2019-03-06T05:57:32.279Z,70.70
2019-03-06T05:58:39.421Z,70.00
2019-03-06T05:59:47.580Z,70.60
2019-03-06T06:00:54.746Z,70.80
2019-03-06T06:02:03.329Z,70.90
2019-03-06T06:03:10.471Z,71.00
2019-03-06T06:04:17.619Z,71.00
2019-03-06T06:05:24.783Z,71.20
2019-03-06T06:06:31.846Z,71.20
2019-03-06T06:07:38.987Z,71.10
2019-03-06T06:08:46.060Z,71.30
2019-03-06T06:09:53.119Z,71.40
2019-03-06T06:11:00.229Z,71.50
2019-03-06T06:12:07.380Z,71.80
2019-03-06T06:13:14.564Z,71.90
2019-03-06T06:14:21.711Z,71.90
2019-03-06T06:15:28.852Z,72.10
2019-03-06T06:16:36.020Z,72.40
2019-03-06T06:17:43.169Z,72.30
2019-03-06T06:18:50.301Z,72.30
2019-03-06T06:19:57.374Z,72.40
2019-03-06T06:21:41.856Z,72.30
2019-03-06T06:23:10.965Z,72.30
2019-03-06T06:24:22.338Z,72.40
2019-03-06T06:25:30.688Z,72.20
2019-03-06T06:26:39.034Z,72.10
2019-03-06T06:27:46.197Z,72.10
2019-03-06T06:28:53.333Z,72.40
2019-03-06T06:30:00.515Z,73.00
2019-03-06T06:31:07.672Z,72.30
2019-03-06T06:32:15.407Z,72.30
2019-03-06T06:33:22.546Z,72.70
2019-03-06T06:34:29.700Z,72.80
2019-03-06T06:35:37.757Z,72.80
2019-03-06T06:36:45.101Z,72.80
2019-03-06T06:37:52.261Z,72.80
2019-03-06T06:38:59.334Z,72.80
2019-03-06T06:40:07.232Z,72.70
2019-03-06T06:41:14.388Z,72.70
2019-03-06T06:42:21.530Z,72.70
2019-03-06T06:43:28.605Z,72.90
2019-03-06T06:44:35.776Z,72.80
2019-03-06T06:45:42.835Z,73.00
2019-03-06T06:46:50.261Z,73.00
2019-03-06T06:48:22.022Z,73.40
2019-03-06T06:49:29.158Z,73.40
2019-03-06T06:50:36.480Z,73.60
2019-03-06T06:52:50.426Z,73.70
2019-03-06T06:54:09.254Z,73.80
2019-03-06T06:56:07.559Z,74.00
2019-03-06T06:58:08.968Z,74.00
2019-03-06T06:59:59.565Z,75.00
2019-03-06T07:02:17.717Z,74.50
2019-03-06T07:04:17.432Z,74.60
2019-03-06T07:05:49.639Z,74.50
2019-03-06T07:07:14.440Z,75.00
2019-03-06T07:08:38.990Z,75.20
2019-03-06T07:10:03.662Z,75.50
2019-03-06T07:11:48.799Z,75.70
2019-03-06T07:13:24.192Z,75.80
2019-03-06T07:14:59.683Z,76.20
2019-03-06T07:16:25.770Z,76.50
2019-03-06T07:17:47.779Z,76.60
2019-03-06T07:19:05.909Z,76.60
2019-03-06T07:20:32.449Z,76.70
2019-03-06T07:21:57.162Z,76.90
2019-03-06T07:23:22.076Z,76.80
2019-03-06T07:24:57.614Z,76.90
2019-03-06T07:26:22.584Z,77.70
2019-03-06T07:27:51.709Z,76.90
2019-03-06T07:29:10.453Z,76.90
2019-03-06T07:30:36.151Z,77.00
2019-03-06T07:32:05.707Z,77.00
2019-03-06T07:33:43.913Z,77.00
2019-03-06T07:36:07.269Z,77.00
2019-03-06T07:37:28.255Z,77.00
2019-03-06T07:38:29.158Z,77.00
2019-03-06T07:39:58.989Z,77.10
2019-03-06T07:41:40.377Z,77.20
2019-03-06T07:42:55.212Z,77.80
2019-03-06T07:44:30.389Z,77.30
2019-03-06T07:46:05.774Z,77.20
2019-03-06T07:47:31.777Z,77.00
2019-03-06T07:49:05.554Z,76.70
2019-03-06T07:50:39.549Z,76.30
2019-03-06T07:52:20.969Z,76.20
2019-03-06T07:53:59.646Z,76.00
2019-03-06T07:55:22.477Z,75.60
2019-03-06T07:56:43.154Z,75.30
2019-03-06T07:58:44.190Z,75.40
2019-03-06T07:59:52.472Z,75.20
2019-03-06T08:00:59.612Z,75.40
2019-03-06T08:02:14.924Z,75.00
2019-03-06T08:03:46.372Z,74.80
2019-03-06T08:04:54.909Z,74.60
2019-03-06T08:06:02.094Z,74.80
2019-03-06T08:07:13.028Z,75.70
2019-03-06T08:08:20.176Z,75.60
2019-03-06T08:09:27.376Z,75.50
2019-03-06T08:10:36.176Z,75.70
2019-03-06T08:11:51.614Z,75.80
2019-03-06T08:13:04.720Z,75.80
2019-03-06T08:14:31.157Z,75.80
2019-03-06T08:15:53.506Z,75.30
2019-03-06T08:17:19.815Z,75.60
2019-03-06T08:18:37.002Z,74.80
2019-03-06T08:19:59.491Z,74.90
2019-03-06T08:21:37.950Z,74.50
2019-03-06T08:23:04.293Z,74.60
2019-03-06T08:24:22.583Z,73.20
2019-03-06T08:25:43.936Z,72.80
2019-03-06T08:26:51.141Z,72.60
2019-03-06T08:27:58.484Z,72.60
2019-03-06T08:29:05.660Z,72.70
2019-03-06T08:30:13.247Z,72.50
2019-03-06T08:31:51.123Z,72.70
2019-03-06T08:32:58.289Z,72.50
2019-03-06T08:34:05.437Z,72.20
2019-03-06T08:35:12.815Z,72.60
2019-03-06T08:36:20.153Z,71.80
2019-03-06T08:37:27.305Z,72.10
2019-03-06T08:38:34.506Z,71.80
2019-03-06T08:39:41.866Z,71.90
2019-03-06T08:40:49.046Z,71.90
2019-03-06T08:41:56.334Z,71.30
2019-03-06T08:43:03.486Z,71.00
2019-03-06T08:44:10.666Z,71.00
2019-03-06T08:45:20.198Z,70.50
2019-03-06T08:46:49.554Z,69.90
2019-03-06T08:48:05.886Z,69.00
2019-03-06T08:49:31.931Z,69.10
2019-03-06T08:50:58.003Z,69.20
2019-03-06T08:52:22.718Z,69.80
2019-03-06T08:53:39.355Z,69.30
2019-03-06T08:55:04.098Z,68.50
2019-03-06T08:56:39.311Z,67.10
2019-03-06T08:57:56.160Z,67.50
2019-03-06T08:59:26.559Z,67.00
2019-03-06T09:01:01.472Z,66.70
2019-03-06T09:02:18.694Z,68.20
2019-03-06T09:03:55.095Z,67.70
2019-03-06T09:05:31.072Z,66.60
2019-03-06T09:07:10.725Z,65.10
2019-03-06T09:08:38.586Z,65.50
2019-03-06T09:10:04.641Z,65.10
2019-03-06T09:11:21.934Z,64.80
2019-03-06T09:12:36.881Z,64.50
2019-03-06T09:13:55.355Z,64.80
2019-03-06T09:15:30.770Z,64.50
2019-03-06T09:17:05.929Z,64.30
2019-03-06T09:18:38.270Z,64.40
2019-03-06T09:20:00.329Z,64.00
2019-03-06T09:21:19.701Z,64.20
2019-03-06T09:22:45.532Z,65.00
2019-03-06T09:24:14.872Z,63.60
2019-03-06T09:25:34.630Z,63.70
2019-03-06T09:26:59.597Z,62.50
2019-03-06T09:28:23.486Z,61.90
2019-03-06T09:29:36.895Z,62.60
2019-03-06T09:30:53.599Z,62.40
2019-03-06T09:32:09.777Z,63.70
2019-03-06T09:33:35.824Z,62.80
2019-03-06T09:34:58.312Z,63.40
2019-03-06T09:36:33.437Z,63.30
2019-03-06T09:37:59.690Z,63.90
2019-03-06T09:39:29.158Z,63.00
2019-03-06T09:40:52.419Z,62.30
2019-03-06T09:42:21.220Z,62.70
2019-03-06T09:43:53.926Z,62.90
2019-03-06T09:45:26.097Z,62.80
2019-03-06T09:46:54.926Z,62.30
2019-03-06T09:48:17.976Z,63.40
2019-03-06T09:49:42.869Z,63.00
2019-03-06T09:50:59.877Z,62.10
2019-03-06T09:52:26.998Z,62.40
2019-03-06T09:53:46.983Z,61.90
2019-03-06T09:55:13.198Z,60.80
2019-03-06T09:56:28.666Z,60.10
2019-03-06T09:58:06.681Z,59.90
2019-03-06T09:59:28.014Z,59.60
2019-03-06T10:00:45.893Z,59.30
2019-03-06T10:02:21.019Z,59.70
2019-03-06T10:03:47.137Z,59.40
2019-03-06T10:05:01.860Z,58.90
2019-03-06T10:06:15.612Z,58.60
2019-03-06T10:07:41.204Z,59.20
2019-03-06T10:08:57.156Z,60.20
2019-03-06T10:10:26.418Z,59.40
2019-03-06T10:11:42.391Z,58.80
2019-03-06T10:12:58.761Z,58.50
2019-03-06T10:14:31.025Z,58.80
2019-03-06T10:15:52.345Z,59.20
2019-03-06T10:17:30.471Z,58.80
2019-03-06T10:19:14.441Z,59.30
2019-03-06T10:20:25.300Z,58.60
2019-03-06T10:21:32.980Z,57.90
2019-03-06T10:22:40.176Z,57.00
2019-03-06T10:23:48.974Z,58.90
2019-03-06T10:24:56.199Z,58.40
2019-03-06T10:26:03.387Z,58.30
2019-03-06T10:27:12.025Z,57.50
2019-03-06T10:28:27.498Z,57.20
2019-03-06T10:29:28.046Z,58.00
2019-03-06T10:30:35.220Z,57.70
2019-03-06T10:31:42.396Z,57.40
2019-03-06T10:32:49.625Z,56.80
2019-03-06T10:33:56.800Z,56.50
2019-03-06T10:35:03.958Z,56.10
2019-03-06T10:36:11.834Z,56.20
2019-03-06T10:37:19.005Z,57.00
2019-03-06T10:38:26.152Z,55.80
2019-03-06T10:39:33.348Z,55.60
2019-03-06T10:40:40.498Z,55.00
2019-03-06T10:41:47.646Z,55.20
2019-03-06T10:42:56.337Z,54.90
2019-03-06T10:44:04.560Z,54.80
2019-03-06T10:45:13.000Z,54.60
2019-03-06T10:46:20.238Z,54.20
2019-03-06T10:47:27.485Z,55.00
2019-03-06T10:48:34.666Z,55.50
2019-03-06T10:49:41.822Z,54.70
2019-03-06T10:50:48.981Z,55.00
2019-03-06T10:51:56.208Z,55.60
2019-03-06T10:53:03.586Z,55.00
2019-03-06T10:54:10.748Z,55.30
2019-03-06T10:55:18.353Z,55.80
2019-03-06T10:56:25.494Z,55.40
2019-03-06T10:57:33.984Z,55.40
2019-03-06T10:58:42.163Z,54.80
2019-03-06T10:59:49.620Z,54.30
2019-03-06T11:00:56.795Z,55.00
2019-03-06T11:02:04.360Z,55.20
2019-03-06T11:03:11.810Z,55.70
2019-03-06T11:04:46.733Z,54.60
2019-03-06T11:05:55.068Z,54.60
2019-03-06T11:07:02.438Z,53.20
2019-03-06T11:08:09.773Z,52.70
2019-03-06T11:09:16.936Z,53.30
2019-03-06T11:10:26.822Z,51.60
2019-03-06T11:11:33.564Z,50.60
2019-03-06T11:12:40.785Z,51.70
2019-03-06T11:13:47.941Z,50.70
2019-03-06T11:14:55.148Z,50.60
2019-03-06T11:16:03.228Z,50.50
2019-03-06T11:17:10.794Z,51.10
2019-03-06T11:18:18.639Z,51.70
2019-03-06T11:19:25.919Z,52.70
2019-03-06T11:20:34.155Z,51.90
2019-03-06T11:21:41.324Z,51.40
2019-03-06T11:22:49.028Z,51.10
2019-03-06T11:23:56.301Z,51.20
2019-03-06T11:25:04.169Z,50.00
2019-03-06T11:26:11.802Z,50.10
2019-03-06T11:27:19.092Z,50.50
2019-03-06T11:28:26.271Z,50.20
2019-03-06T11:29:33.563Z,51.00
2019-03-06T11:30:49.473Z,51.00
2019-03-06T11:31:56.745Z,51.60
2019-03-06T11:33:04.466Z,52.00
2019-03-06T11:34:12.582Z,51.00
2019-03-06T11:35:21.923Z,51.40
2019-03-06T11:36:29.179Z,51.10
2019-03-06T11:37:37.009Z,51.10
2019-03-06T11:38:44.400Z,51.90
2019-03-06T11:39:51.546Z,51.80
2019-03-06T11:40:59.440Z,51.30
2019-03-06T11:42:08.014Z,51.40
2019-03-06T11:43:16.591Z,51.50
2019-03-06T11:44:23.771Z,49.50
2019-03-06T11:45:31.143Z,47.70
2019-03-06T11:46:38.459Z,48.00
2019-03-06T11:47:45.890Z,48.50
2019-03-06T11:48:53.125Z,47.80
2019-03-06T11:50:00.329Z,48.20
2019-03-06T11:51:07.683Z,48.10
2019-03-06T11:52:14.846Z,48.60
2019-03-06T11:53:22.325Z,48.60
2019-03-06T11:54:29.484Z,48.00
2019-03-06T11:55:37.489Z,47.90
2019-03-06T11:56:44.728Z,48.30
2019-03-06T11:57:52.997Z,47.90
2019-03-06T11:59:00.194Z,47.50
2019-03-06T12:00:14.958Z,47.90
2019-03-06T12:01:25.020Z,48.00
2019-03-06T12:02:32.415Z,48.70
2019-03-06T12:03:39.624Z,49.00
2019-03-06T12:04:47.025Z,48.80
2019-03-06T12:05:55.693Z,48.70
2019-03-06T12:07:02.935Z,48.80
2019-03-06T12:08:13.478Z,48.50
2019-03-06T12:09:32.967Z,48.90
2019-03-06T12:10:40.308Z,48.30
2019-03-06T12:11:47.492Z,48.40
2019-03-06T12:12:54.893Z,48.50
2019-03-06T12:14:02.077Z,48.80
2019-03-06T12:15:11.719Z,49.20
2019-03-06T12:16:21.007Z,49.00
2019-03-06T12:17:28.170Z,48.90
2019-03-06T12:18:35.384Z,49.10
2019-03-06T12:19:42.568Z,49.60
2019-03-06T12:20:50.802Z,49.40
2019-03-06T12:21:58.393Z,49.30
2019-03-06T12:23:06.252Z,49.50
2019-03-06T12:24:13.433Z,49.80
2019-03-06T12:25:20.587Z,49.40
2019-03-06T12:26:27.908Z,49.50
2019-03-06T12:27:35.135Z,49.70
2019-03-06T12:28:42.950Z,49.70
2019-03-06T12:29:50.605Z,49.80
2019-03-06T12:30:58.165Z,50.10
2019-03-06T12:32:07.150Z,50.50
2019-03-06T12:33:28.583Z,49.60
2019-03-06T12:34:35.765Z,49.70
2019-03-06T12:35:42.970Z,50.20
2019-03-06T12:36:50.441Z,50.40
2019-03-06T12:37:57.835Z,50.20
2019-03-06T12:39:05.995Z,50.20
2019-03-06T12:40:15.617Z,49.60
2019-03-06T12:41:22.992Z,49.70
2019-03-06T12:42:30.239Z,49.00
2019-03-06T12:43:38.085Z,49.20
2019-03-06T12:44:45.239Z,49.60
2019-03-06T12:46:23.968Z,49.80
2019-03-06T12:47:28.860Z,49.50
2019-03-06T12:48:36.203Z,50.00
2019-03-06T12:49:43.667Z,49.60
2019-03-06T12:50:55.940Z,49.60
2019-03-06T12:51:59.721Z,49.60
2019-03-06T12:53:07.056Z,50.00
2019-03-06T12:54:14.244Z,50.00
2019-03-06T12:55:21.401Z,49.90
2019-03-06T12:56:28.705Z,49.70
2019-03-06T12:57:36.232Z,49.60
2019-03-06T12:58:43.719Z,49.50
2019-03-06T12:59:52.265Z,49.40
2019-03-06T13:00:59.463Z,49.20
2019-03-06T13:02:06.708Z,49.10
2019-03-06T13:03:13.920Z,49.30
2019-03-06T13:04:21.191Z,48.80
2019-03-06T13:05:28.370Z,48.60
2019-03-06T13:06:35.526Z,50.10
2019-03-06T13:07:42.694Z,49.50
2019-03-06T13:08:50.883Z,49.20
2019-03-06T13:09:58.221Z,49.90
2019-03-06T13:11:05.665Z,50.00
2019-03-06T13:12:12.944Z,49.60
2019-03-06T13:13:20.742Z,49.50
2019-03-06T13:14:30.451Z,49.60
2019-03-06T13:15:36.988Z,49.30
2019-03-06T13:16:44.261Z,49.60
2019-03-06T13:17:52.952Z,50.30
2019-03-06T13:19:00.380Z,50.40
2019-03-06T13:20:10.742Z,50.70
2019-03-06T13:21:18.058Z,50.40
2019-03-06T13:22:25.297Z,50.10
2019-03-06T13:23:32.477Z,51.00
2019-03-06T13:24:39.635Z,50.80
2019-03-06T13:25:46.825Z,50.60
2019-03-06T13:26:53.999Z,50.50
2019-03-06T13:28:01.150Z,50.10
2019-03-06T13:29:09.478Z,50.10
2019-03-06T13:30:17.061Z,49.90
2019-03-06T13:31:26.212Z,50.10
2019-03-06T13:32:48.828Z,50.30
2019-03-06T13:34:13.198Z,50.30
2019-03-06T13:35:20.628Z,50.50
2019-03-06T13:36:27.843Z,50.30
2019-03-06T13:37:35.219Z,51.00
2019-03-06T13:38:42.402Z,50.90
2019-03-06T13:39:49.563Z,51.00
2019-03-06T13:40:56.745Z,51.40
2019-03-06T13:42:05.192Z,50.70
2019-03-06T13:43:12.660Z,50.70
2019-03-06T13:44:20.021Z,50.50
2019-03-06T13:45:27.287Z,50.40
2019-03-06T13:46:34.651Z,51.00
2019-03-06T13:47:42.040Z,50.40
2019-03-06T13:48:49.526Z,50.70
2019-03-06T13:49:57.136Z,50.10
2019-03-06T13:51:04.303Z,50.50
2019-03-06T13:52:11.784Z,50.50
2019-03-06T13:53:20.989Z,50.20
2019-03-06T13:54:28.142Z,50.40
2019-03-06T13:55:35.525Z,50.50
2019-03-06T13:56:42.745Z,50.60
2019-03-06T13:57:50.061Z,51.30
2019-03-06T13:58:58.366Z,51.20
2019-03-06T14:00:07.706Z,51.30
2019-03-06T14:01:15.705Z,51.20
2019-03-06T14:02:24.249Z,51.20
2019-03-06T14:03:31.781Z,51.10
2019-03-06T14:04:39.636Z,50.20
2019-03-06T14:05:47.239Z,50.60
2019-03-06T14:06:54.769Z,50.50
2019-03-06T14:08:02.169Z,50.50
2019-03-06T14:09:12.367Z,50.70
2019-03-06T14:10:21.541Z,50.80
2019-03-06T14:11:28.889Z,50.80
2019-03-06T14:12:36.055Z,51.30
2019-03-06T14:13:43.304Z,51.60
2019-03-06T14:14:50.555Z,52.10
2019-03-06T14:15:58.510Z,51.60
2019-03-06T14:17:08.290Z,51.80
2019-03-06T14:18:15.840Z,51.50
2019-03-06T14:19:23.307Z,51.70
2019-03-06T14:20:30.533Z,51.30
2019-03-06T14:21:37.894Z,51.20
2019-03-06T14:22:45.059Z,51.20
2019-03-06T14:23:52.218Z,51.30
2019-03-06T14:24:59.397Z,51.80
2019-03-06T14:26:08.526Z,50.30
2019-03-06T14:27:15.869Z,50.20
2019-03-06T14:28:23.026Z,49.80
2019-03-06T14:29:30.509Z,49.80
2019-03-06T14:30:38.640Z,49.90
2019-03-06T14:31:45.931Z,50.10
2019-03-06T14:32:54.076Z,49.80
2019-03-06T14:34:01.310Z,49.50
2019-03-06T14:35:08.822Z,49.50
2019-03-06T14:36:16.116Z,49.20
2019-03-06T14:37:23.325Z,49.00
2019-03-06T14:38:30.488Z,49.20
2019-03-06T14:39:37.853Z,49.30
2019-03-06T14:40:48.431Z,49.20
2019-03-06T14:41:58.206Z,49.00
2019-03-06T14:43:06.838Z,49.10
2019-03-06T14:44:13.996Z,49.90
2019-03-06T14:45:21.290Z,49.90
2019-03-06T14:46:28.457Z,50.00
2019-03-06T14:47:35.783Z,48.90
2019-03-06T14:48:43.081Z,49.10
2019-03-06T14:49:50.239Z,49.10
2019-03-06T14:50:59.312Z,49.10
2019-03-06T14:52:07.812Z,49.10
2019-03-06T14:53:15.143Z,48.50
2019-03-06T14:54:22.321Z,49.00
2019-03-06T14:55:30.896Z,49.20
2019-03-06T14:56:38.221Z,48.90
2019-03-06T14:57:45.393Z,47.90
2019-03-06T14:58:52.587Z,48.30
2019-03-06T14:59:59.764Z,48.50
2019-03-06T15:01:07.992Z,47.80
2019-03-06T15:02:16.120Z,47.60
2019-03-06T15:03:23.435Z,47.90
2019-03-06T15:04:30.988Z,48.00
2019-03-06T15:05:46.686Z,48.20
2019-03-06T15:06:47.173Z,48.20
2019-03-06T15:07:54.375Z,48.20
2019-03-06T15:09:01.957Z,47.50
2019-03-06T15:10:13.640Z,47.70
2019-03-06T15:11:22.209Z,48.20
2019-03-06T15:12:29.367Z,47.80
2019-03-06T15:13:36.750Z,47.40
2019-03-06T15:14:44.038Z,47.50
2019-03-06T15:15:52.724Z,47.60
2019-03-06T15:16:59.888Z,47.70
2019-03-06T15:18:10.569Z,47.60
2019-03-06T15:19:16.714Z,47.30
2019-03-06T15:20:24.439Z,48.20
2019-03-06T15:21:31.766Z,47.60
2019-03-06T15:22:40.125Z,48.20